Time,TemperatureF,DewpointF,PressureIn,WindDirection,WindDirectionDegrees,WindSpeedMPH,WindSpeedGustMPH,Humidity,HourlyPrecipIn,Conditions,Clouds,dailyrainin,SoftwareType,DateUTC
2013-10-08 00:14:00,58.0,48.0,29.97,NNW,345,6.0,11.0,69,0.00,,,0.33,,2013-10-08 04:14:00,
2013-10-08 00:23:00,58.0,48.0,29.97,NNW,345,6.0,11.0,69,0.00,,,0.33,,2013-10-08 04:23:00,
2013-10-08 00:43:00,57.0,48.0,29.98,West,281,2.0,6.0,72,0.00,,,0.33,,2013-10-08 04:43:00,
2013-10-08 00:53:00,56.0,48.0,29.99,WNW,294,1.0,4.0,75,0.00,,,0.33,,2013-10-08 04:53:00,
2013-10-08 01:13:00,55.0,48.0,29.99,NW,321,0.0,2.0,77,0.00,,,0.33,,2013-10-08 05:13:00,
2013-10-08 01:22:00,54.0,49.0,30.00,SE,129,0.0,1.0,83,0.00,,,0.33,,2013-10-08 05:22:00,
2013-10-08 01:42:00,53.0,49.0,30.01,West,275,0.0,1.0,87,0.00,,,0.33,,2013-10-08 05:42:00,
2013-10-08 01:53:00,51.0,48.0,30.02,West,275,0.0,1.0,90,0.00,,,0.33,,2013-10-08 05:53:00,
2013-10-08 02:12:00,51.0,49.0,30.03,West,274,0.0,1.0,92,0.00,,,0.33,,2013-10-08 06:12:00,
2013-10-08 02:22:00,50.0,48.0,30.04,West,274,0.0,1.0,94,0.00,,,0.33,,2013-10-08 06:22:00,
2013-10-08 02:42:00,49.0,48.0,30.04,NW,316,0.0,0.0,95,0.00,,,0.33,,2013-10-08 06:42:00,
2013-10-08 02:52:00,49.0,48.0,30.05,NW,317,0.0,0.0,95,0.00,,,0.33,,2013-10-08 06:52:00,
2013-10-08 03:12:00,48.0,47.0,30.05,NW,317,0.0,0.0,96,0.00,,,0.33,,2013-10-08 07:12:00,
2013-10-08 03:22:00,48.0,47.0,30.05,NW,317,0.0,0.0,97,0.00,,,0.33,,2013-10-08 07:22:00,
2013-10-08 03:42:00,48.0,47.0,30.06,NW,317,0.0,0.0,97,0.00,,,0.33,,2013-10-08 07:42:00,
2013-10-08 03:52:00,48.0,47.0,30.06,NW,317,0.0,0.0,97,0.00,,,0.33,,2013-10-08 07:52:00,
2013-10-08 04:12:00,48.0,47.0,30.06,NW,317,0.0,0.0,97,0.00,,,0.33,,2013-10-08 08:12:00,
2013-10-08 04:22:00,48.0,47.0,30.06,NNW,328,0.0,1.0,97,0.00,,,0.33,,2013-10-08 08:22:00,
2013-10-08 04:42:00,47.0,46.0,30.07,NNW,328,0.0,0.0,97,0.00,,,0.33,,2013-10-08 08:42:00,
2013-10-08 04:52:00,47.0,46.0,30.09,NNW,328,0.0,0.0,97,0.00,,,0.33,,2013-10-08 08:52:00,
2013-10-08 05:12:00,47.0,46.0,30.09,NNW,328,0.0,1.0,97,0.00,,,0.33,,2013-10-08 09:12:00,
2013-10-08 05:22:00,47.0,46.0,30.11,NNW,327,0.0,1.0,97,0.00,,,0.33,,2013-10-08 09:22:00,
2013-10-08 05:43:00,46.0,45.0,30.11,NNW,328,0.0,0.0,98,0.00,,,0.33,,2013-10-08 09:43:00,
2013-10-08 05:53:00,47.0,46.0,30.12,NW,319,0.0,1.0,98,0.00,,,0.33,,2013-10-08 09:53:00,
2013-10-08 06:12:00,48.0,46.0,30.13,NNE,15,2.0,4.0,94,0.00,,,0.33,,2013-10-08 10:12:00,
2013-10-08 06:23:00,48.0,46.0,30.13,NE,52,0.0,2.0,93,0.00,,,0.33,,2013-10-08 10:23:00,
2013-10-08 06:42:00,47.0,45.0,30.14,NNW,339,0.0,2.0,94,0.00,,,0.33,,2013-10-08 10:42:00,
2013-10-08 06:53:00,47.0,45.0,30.14,North,356,2.0,4.0,94,0.00,,,0.33,,2013-10-08 10:53:00,
2013-10-08 07:12:00,48.0,45.0,30.14,NNW,333,0.0,4.0,90,0.00,,,0.33,,2013-10-08 11:12:00,
2013-10-08 07:22:00,49.0,46.0,30.15,NNE,14,2.0,6.0,89,0.00,,,0.33,,2013-10-08 11:22:00,
2013-10-08 07:42:00,49.0,46.0,30.16,ESE,119,0.0,3.0,90,0.00,,,0.33,,2013-10-08 11:42:00,
2013-10-08 07:52:00,48.0,45.0,30.17,North,355,0.0,3.0,90,0.00,,,0.33,,2013-10-08 11:52:00,
2013-10-08 08:12:00,50.0,46.0,30.18,NNE,23,0.0,2.0,87,0.00,,,0.33,,2013-10-08 12:12:00,
2013-10-08 08:22:00,48.0,45.0,30.18,East,98,0.0,1.0,91,0.00,,,0.33,,2013-10-08 12:22:00,
2013-10-08 08:42:00,50.0,46.0,30.19,NNW,344,3.0,6.0,86,0.00,,,0.33,,2013-10-08 12:42:00,
2013-10-08 08:52:00,53.0,47.0,30.20,NNE,20,3.0,7.0,81,0.00,,,0.33,,2013-10-08 12:52:00,
2013-10-08 09:12:00,54.0,47.0,30.22,North,4,3.0,5.0,77,0.00,,,0.33,,2013-10-08 13:12:00,
2013-10-08 09:22:00,55.0,48.0,30.22,NE,38,1.0,8.0,76,0.00,,,0.33,,2013-10-08 13:22:00,
2013-10-08 09:42:00,56.0,48.0,30.22,NNW,348,1.0,6.0,75,0.00,,,0.33,,2013-10-08 13:42:00,
2013-10-08 09:52:00,56.0,46.0,30.23,NNE,15,5.0,12.0,69,0.00,,,0.33,,2013-10-08 13:52:00,
2013-10-08 10:11:00,57.0,47.0,30.23,NNE,15,3.0,9.0,69,0.00,,,0.33,,2013-10-08 14:11:00,
2013-10-08 10:22:00,57.0,45.0,30.23,ENE,77,5.0,10.0,65,0.00,,,0.33,,2013-10-08 14:22:00,
2013-10-08 10:42:00,58.0,46.0,30.24,NNW,334,5.0,11.0,64,0.00,,,0.33,,2013-10-08 14:42:00,
2013-10-08 10:52:00,59.0,46.0,30.24,NNW,342,4.0,12.0,62,0.00,,,0.33,,2013-10-08 14:52:00,
2013-10-08 11:11:00,59.0,45.0,30.24,NNE,30,4.0,10.0,59,0.00,,,0.33,,2013-10-08 15:11:00,
2013-10-08 11:22:00,60.0,45.0,30.24,NE,49,3.0,10.0,58,0.00,,,0.33,,2013-10-08 15:22:00,
2013-10-08 11:44:00,61.0,44.0,30.24,NNE,32,4.0,14.0,54,0.00,,,0.33,,2013-10-08 15:44:00,
2013-10-08 11:53:00,61.0,45.0,30.24,North,353,2.0,9.0,55,0.00,,,0.33,,2013-10-08 15:53:00,
2013-10-08 12:13:00,62.0,44.0,30.24,NE,39,3.0,11.0,52,0.00,,,0.33,,2013-10-08 16:13:00,
2013-10-08 12:23:00,61.0,44.0,30.24,NNW,337,6.0,13.0,54,0.00,,,0.33,,2013-10-08 16:23:00,
2013-10-08 12:42:00,62.0,45.0,30.24,North,356,3.0,10.0,54,0.00,,,0.26,,2013-10-08 16:42:00,
2013-10-08 12:53:00,63.0,43.0,30.24,North,7,7.0,12.0,48,0.00,,,0.26,,2013-10-08 16:53:00,
2013-10-08 13:12:00,62.0,42.0,30.23,North,1,5.0,13.0,48,0.00,,,0.26,,2013-10-08 17:12:00,
2013-10-08 13:23:00,63.0,44.0,30.23,North,11,4.0,8.0,50,0.00,,,0.26,,2013-10-08 17:23:00,
2013-10-08 13:42:00,63.0,44.0,30.22,NNE,23,5.0,14.0,49,0.00,,,0.25,,2013-10-08 17:42:00,
2013-10-08 13:52:00,64.0,43.0,30.22,ESE,110,7.0,13.0,47,0.00,,,0.25,,2013-10-08 17:52:00,
2013-10-08 14:11:00,64.0,43.0,30.22,NNE,19,6.0,13.0,46,0.00,,,0.25,,2013-10-08 18:11:00,
2013-10-08 14:22:00,64.0,42.0,30.22,NNE,27,4.0,10.0,45,0.00,,,0.25,,2013-10-08 18:22:00,
2013-10-08 14:42:00,65.0,44.0,30.21,North,352,5.0,10.0,46,0.00,,,0.25,,2013-10-08 18:42:00,
2013-10-08 14:53:00,65.0,43.0,30.22,NNE,31,4.0,7.0,45,0.00,,,0.25,,2013-10-08 18:53:00,
2013-10-08 15:11:00,66.0,43.0,30.23,NW,323,4.0,9.0,43,0.00,,,0.25,,2013-10-08 19:11:00,
2013-10-08 15:22:00,65.0,43.0,30.23,NE,41,2.0,10.0,45,0.00,,,0.25,,2013-10-08 19:22:00,
2013-10-08 15:42:00,65.0,43.0,30.23,NE,35,3.0,9.0,45,0.00,,,0.24,,2013-10-08 19:42:00,
2013-10-08 15:53:00,65.0,44.0,30.24,East,82,3.0,7.0,46,0.00,,,0.24,,2013-10-08 19:53:00,
2013-10-08 16:12:00,65.0,43.0,30.24,North,10,3.0,9.0,45,0.00,,,0.24,,2013-10-08 20:12:00,
2013-10-08 16:22:00,65.0,44.0,30.24,NE,35,4.0,9.0,46,0.00,,,0.24,,2013-10-08 20:22:00,
2013-10-08 16:42:00,64.0,44.0,30.24,NNE,23,1.0,6.0,48,0.00,,,0.12,,2013-10-08 20:42:00,
2013-10-08 16:52:00,64.0,45.0,30.24,ESE,118,0.0,5.0,50,0.00,,,0.12,,2013-10-08 20:52:00,
2013-10-08 17:12:00,64.0,46.0,30.24,North,3,1.0,7.0,52,0.00,,,0.12,,2013-10-08 21:12:00,
2013-10-08 17:22:00,64.0,47.0,30.23,North,9,0.0,4.0,53,0.00,,,0.12,,2013-10-08 21:22:00,
2013-10-08 17:44:00,64.0,47.0,30.24,East,100,0.0,2.0,55,0.00,,,0.04,,2013-10-08 21:44:00,
2013-10-08 17:54:00,63.0,48.0,30.24,ENE,62,0.0,6.0,57,0.00,,,0.04,,2013-10-08 21:54:00,
2013-10-08 18:13:00,62.0,47.0,30.25,NE,56,0.0,5.0,58,0.00,,,0.04,,2013-10-08 22:13:00,
2013-10-08 18:24:00,61.0,47.0,30.25,ESE,105,0.0,4.0,60,0.00,,,0.04,,2013-10-08 22:24:00,
2013-10-08 18:48:00,60.0,49.0,30.26,ESE,106,0.0,1.0,66,0.00,,,0.00,,2013-10-08 22:48:00,
2013-10-08 18:59:00,58.0,47.0,30.27,ESE,106,0.0,0.0,67,0.00,,,0.00,,2013-10-08 22:59:00,
2013-10-08 19:12:00,57.0,48.0,30.27,ESE,107,0.0,0.0,71,0.00,,,0.00,,2013-10-08 23:12:00,
2013-10-08 19:23:00,55.0,47.0,30.28,ESE,105,0.0,0.0,75,0.00,,,0.00,,2013-10-08 23:23:00,
2013-10-08 19:42:00,54.0,48.0,30.28,ESE,105,0.0,0.0,79,0.00,,,0.00,,2013-10-08 23:42:00,
2013-10-08 19:52:00,53.0,49.0,30.28,East,79,0.0,1.0,85,0.00,,,0.00,,2013-10-08 23:52:00,
2013-10-08 20:12:00,53.0,49.0,30.28,ENE,78,0.0,1.0,87,0.00,,,0.00,,2013-10-09 00:12:00,
2013-10-08 20:22:00,52.0,49.0,30.29,East,79,0.0,1.0,88,0.00,,,0.00,,2013-10-09 00:22:00,
2013-10-08 20:43:00,52.0,49.0,30.29,East,79,0.0,0.0,89,0.00,,,0.00,,2013-10-09 00:43:00,
2013-10-08 20:52:00,51.0,48.0,30.29,East,79,0.0,0.0,90,0.00,,,0.00,,2013-10-09 00:52:00,
2013-10-08 21:12:00,51.0,48.0,30.30,NE,51,0.0,1.0,91,0.00,,,0.00,,2013-10-09 01:12:00,
2013-10-08 21:22:00,51.0,48.0,30.30,NE,51,0.0,1.0,90,0.00,,,0.00,,2013-10-09 01:22:00,
2013-10-08 21:43:00,51.0,48.0,30.31,NE,36,0.0,1.0,90,0.00,,,0.00,,2013-10-09 01:43:00,
2013-10-08 21:52:00,51.0,48.0,30.31,NE,36,0.0,0.0,90,0.00,,,0.00,,2013-10-09 01:52:00,
2013-10-08 22:12:00,50.0,47.0,30.32,NE,37,0.0,0.0,91,0.00,,,0.00,,2013-10-09 02:12:00,
2013-10-08 22:23:00,50.0,48.0,30.32,NNE,33,0.0,1.0,92,0.00,,,0.00,,2013-10-09 02:23:00,
2013-10-08 22:42:00,50.0,46.0,30.33,NNW,333,0.0,2.0,87,0.00,,,0.00,,2013-10-09 02:42:00,
2013-10-08 22:52:00,51.0,47.0,30.33,NNW,344,0.0,5.0,86,0.00,,,0.00,,2013-10-09 02:52:00,
2013-10-08 23:11:00,51.0,45.0,30.33,North,357,0.0,2.0,80,0.00,,,0.00,,2013-10-09 03:11:00,
2013-10-08 23:23:00,51.0,45.0,30.33,North,359,0.0,0.0,80,0.00,,,0.00,,2013-10-09 03:23:00,
2013-10-08 23:44:00,51.0,45.0,30.33,NNE,24,0.0,3.0,80,0.00,,,0.00,,2013-10-09 03:44:00,
2013-10-08 23:54:00,52.0,45.0,30.33,North,360,0.0,4.0,77,0.00,,,0.00,,2013-10-09 03:54:00,